createdAt,value
2023-03-14T00:04:22.464Z,10.00
2023-03-14T00:10:33.219Z,8.60
2023-03-14T00:16:54.144Z,8.20
2023-03-14T00:23:47.954Z,7.30
2023-03-14T00:30:52.031Z,7.30
2023-03-14T00:37:18.562Z,6.30
2023-03-14T00:44:13.885Z,5.90
2023-03-14T00:51:17.100Z,6.00
2023-03-14T00:58:12.411Z,5.60
2023-03-14T01:04:46.791Z,4.90
2023-03-14T01:11:13.032Z,3.70
2023-03-14T01:18:15.825Z,4.50
2023-03-14T01:24:23.915Z,4.60
2023-03-14T01:31:06.799Z,4.20
2023-03-14T01:37:31.765Z,4.00
2023-03-14T01:44:00.744Z,4.50
2023-03-14T01:50:44.874Z,4.20
2023-03-14T01:57:35.950Z,5.00
2023-03-14T02:11:51.734Z,5.30
2023-03-14T02:18:56.060Z,5.00
2023-03-14T02:25:53.037Z,5.10
2023-03-14T02:32:47.197Z,6.20
2023-03-14T02:39:55.954Z,5.60
2023-03-14T02:46:51.477Z,5.70
2023-03-14T02:53:31.737Z,5.10
2023-03-14T03:00:26.610Z,5.60
2023-03-14T03:07:29.628Z,5.60
2023-03-14T03:14:01.700Z,5.70
2023-03-14T03:20:58.197Z,5.50
2023-03-14T03:28:06.712Z,6.10
2023-03-14T03:35:19.541Z,5.70
2023-03-14T03:42:06.004Z,6.10
2023-03-14T03:49:09.079Z,6.60
2023-03-14T03:56:12.641Z,5.70
2023-03-14T04:03:06.593Z,6.40
2023-03-14T04:09:51.641Z,6.00
2023-03-14T04:16:59.780Z,7.70
2023-03-14T04:23:55.382Z,12.50
2023-03-14T04:30:27.477Z,8.50
2023-03-14T04:37:33.671Z,9.90
2023-03-14T04:44:36.496Z,11.50
2023-03-14T04:51:02.947Z,10.10
2023-03-14T04:57:36.826Z,8.30
2023-03-14T05:04:19.593Z,7.50
2023-03-14T05:11:25.375Z,11.50
2023-03-14T05:18:34.095Z,18.40
2023-03-14T05:25:16.783Z,16.00
2023-03-14T05:31:45.983Z,14.50
2023-03-14T05:37:45.510Z,12.90
2023-03-14T05:44:30.575Z,14.70
2023-03-14T05:51:42.310Z,13.70
2023-03-14T05:58:14.313Z,27.00
2023-03-14T06:05:20.189Z,22.20
2023-03-14T06:11:06.077Z,33.10
2023-03-14T06:16:55.448Z,25.30
2023-03-14T06:23:41.535Z,19.60
2023-03-14T06:30:09.250Z,14.00
2023-03-14T06:35:59.206Z,13.70
2023-03-14T06:42:07.642Z,14.90
2023-03-14T06:48:02.228Z,10.00
2023-03-14T06:54:18.047Z,9.80
2023-03-14T06:59:58.132Z,9.70
2023-03-14T07:12:41.548Z,13.90
2023-03-14T07:18:38.481Z,15.30
2023-03-14T07:25:14.615Z,13.90
2023-03-14T07:30:31.420Z,12.80
2023-03-14T07:36:40.880Z,11.70
2023-03-14T07:42:28.074Z,7.90
2023-03-14T07:48:28.983Z,6.80
2023-03-14T07:54:05.450Z,7.00
2023-03-14T08:00:06.129Z,7.20
2023-03-14T08:05:43.020Z,9.10
2023-03-14T08:11:16.442Z,9.00
2023-03-14T08:17:53.783Z,9.40
2023-03-14T08:23:57.767Z,8.50
2023-03-14T08:29:18.847Z,6.20
2023-03-14T08:34:29.509Z,6.40
2023-03-14T08:40:17.619Z,5.50
2023-03-14T08:46:45.066Z,5.30
2023-03-14T08:52:20.284Z,5.60
2023-03-14T08:57:55.306Z,5.50
2023-03-14T09:04:04.315Z,5.50
2023-03-14T09:09:39.673Z,5.60
2023-03-14T09:15:24.244Z,6.80
2023-03-14T09:21:16.507Z,5.70
2023-03-14T09:26:21.239Z,5.50
2023-03-14T09:31:39.243Z,5.50
2023-03-14T09:37:22.139Z,5.50
2023-03-14T09:42:55.789Z,5.10
2023-03-14T09:48:42.502Z,5.50
2023-03-14T09:55:38.936Z,4.50
2023-03-14T10:01:01.319Z,5.40
2023-03-14T10:07:15.390Z,5.20
2023-03-14T10:13:26.378Z,5.90
2023-03-14T10:20:19.184Z,5.40
2023-03-14T10:25:58.163Z,5.40
2023-03-14T10:31:59.387Z,6.00
2023-03-14T10:38:00.013Z,5.30
2023-03-14T10:43:57.345Z,5.60
2023-03-14T10:49:31.232Z,5.30
2023-03-14T10:54:54.204Z,5.50
2023-03-14T11:00:50.568Z,4.90
2023-03-14T11:07:22.001Z,4.90
2023-03-14T11:13:39.377Z,5.70
2023-03-14T11:20:32.917Z,5.70
2023-03-14T11:26:41.005Z,5.50
2023-03-14T11:32:04.609Z,4.70
2023-03-14T11:37:33.021Z,5.00
2023-03-14T11:42:35.039Z,6.20
2023-03-14T11:47:42.059Z,5.60
2023-03-14T11:53:04.378Z,5.90
2023-03-14T11:58:26.408Z,5.50
2023-03-14T12:03:58.032Z,5.80
2023-03-14T12:09:04.586Z,6.10
2023-03-14T12:14:45.067Z,5.70
2023-03-14T12:20:21.670Z,6.70
2023-03-14T12:25:32.444Z,6.20
2023-03-14T12:30:52.219Z,6.60
2023-03-14T12:36:04.450Z,6.60
2023-03-14T12:42:08.126Z,5.60
2023-03-14T12:47:39.022Z,8.10
2023-03-14T12:52:47.322Z,6.60
2023-03-14T12:58:01.728Z,6.60
2023-03-14T13:03:45.227Z,6.00
2023-03-14T13:08:47.841Z,7.40
2023-03-14T13:14:10.949Z,7.40
2023-03-14T13:19:25.938Z,7.40
2023-03-14T13:24:37.633Z,7.70
2023-03-14T13:30:03.030Z,8.60
2023-03-14T13:35:31.886Z,8.80
2023-03-14T13:40:54.312Z,7.90
2023-03-14T13:46:21.727Z,10.30
2023-03-14T13:51:31.851Z,9.00
2023-03-14T13:56:37.312Z,9.00
2023-03-14T14:02:23.566Z,9.20
2023-03-14T14:08:37.899Z,8.70
2023-03-14T14:14:00.094Z,8.30
2023-03-14T14:19:35.843Z,7.80
2023-03-14T14:25:35.296Z,8.40
2023-03-14T14:31:29.085Z,10.90
2023-03-14T14:37:27.564Z,8.10
2023-03-14T14:43:36.584Z,8.00
2023-03-14T14:49:15.025Z,6.50
2023-03-14T14:55:15.365Z,8.60
2023-03-14T15:00:24.976Z,8.00
2023-03-14T15:05:36.284Z,8.80
2023-03-14T15:10:47.364Z,8.70
2023-03-14T15:16:51.643Z,8.30
2023-03-14T15:22:16.288Z,8.40
2023-03-14T15:27:20.265Z,9.00
2023-03-14T15:32:22.532Z,8.50
2023-03-14T15:37:28.760Z,7.40
2023-03-14T15:42:35.773Z,6.60
2023-03-14T15:47:51.149Z,6.80
2023-03-14T15:52:56.720Z,7.70
2023-03-14T15:58:01.176Z,7.60
2023-03-14T16:03:17.875Z,5.80
2023-03-14T16:08:20.146Z,5.40
2023-03-14T16:13:52.685Z,6.00
2023-03-14T16:19:31.470Z,5.70
2023-03-14T16:25:03.332Z,5.50
2023-03-14T16:31:08.736Z,6.20
2023-03-14T16:36:14.629Z,8.30
2023-03-14T16:41:36.571Z,7.80
2023-03-14T16:46:53.813Z,8.90
2023-03-14T16:52:03.800Z,8.90
2023-03-14T16:57:10.915Z,8.10
2023-03-14T17:02:26.057Z,8.90
2023-03-14T17:07:48.334Z,7.90
2023-03-14T17:13:39.959Z,9.00
2023-03-14T17:18:56.501Z,9.40
2023-03-14T17:24:24.373Z,9.50
2023-03-14T17:30:21.028Z,8.90
2023-03-14T17:36:02.468Z,8.80
2023-03-14T17:41:39.398Z,9.30
2023-03-14T17:47:22.847Z,8.20
2023-03-14T17:57:39.816Z,10.80
2023-03-14T18:03:17.946Z,8.20
2023-03-14T18:09:03.250Z,8.40
2023-03-14T18:14:11.135Z,8.40
2023-03-14T18:19:38.805Z,7.50
2023-03-14T18:24:43.148Z,7.40
2023-03-14T18:29:45.310Z,8.60
2023-03-14T18:34:52.221Z,9.70
2023-03-14T18:41:21.710Z,10.60
2023-03-14T18:47:30.448Z,9.20
2023-03-14T18:53:51.895Z,7.70
2023-03-14T18:58:54.382Z,7.60
2023-03-14T19:04:28.268Z,7.10
2023-03-14T19:10:18.562Z,6.60
2023-03-14T19:15:43.934Z,5.40
2023-03-14T19:21:26.859Z,5.50
2023-03-14T19:26:31.897Z,6.70
2023-03-14T19:31:36.185Z,6.50
2023-03-14T19:36:38.064Z,5.60
2023-03-14T19:41:40.249Z,6.50
2023-03-14T19:46:42.187Z,5.90
2023-03-14T19:52:47.100Z,6.40
2023-03-14T19:58:13.953Z,6.60
2023-03-14T20:04:22.030Z,5.80
2023-03-14T20:09:58.378Z,5.90
2023-03-14T20:20:07.519Z,5.30
2023-03-14T20:25:29.981Z,6.20
2023-03-14T20:30:37.187Z,6.10
2023-03-14T20:47:14.041Z,5.80
2023-03-14T20:52:45.830Z,5.60
2023-03-14T20:58:30.799Z,5.50
2023-03-14T21:04:36.753Z,5.40
2023-03-14T21:10:58.197Z,5.40
2023-03-14T21:17:19.237Z,5.90
2023-03-14T21:22:40.807Z,5.70
2023-03-14T21:28:42.085Z,6.50
2023-03-14T21:35:02.759Z,5.30
2023-03-14T21:41:23.850Z,5.90
2023-03-14T21:46:48.625Z,5.90
2023-03-14T21:51:53.103Z,5.70
2023-03-14T21:57:18.696Z,5.70
2023-03-14T22:03:03.311Z,5.40
2023-03-14T22:08:10.179Z,5.60
2023-03-14T22:13:17.108Z,5.60
2023-03-14T22:19:20.744Z,4.90
2023-03-14T22:24:42.476Z,4.60
2023-03-14T22:29:46.711Z,2.80
2023-03-14T22:41:52.520Z,3.40
2023-03-14T22:48:24.179Z,3.30
2023-03-14T22:54:46.603Z,4.30
2023-03-14T23:00:13.219Z,3.20
2023-03-14T23:05:40.863Z,3.60
2023-03-14T23:11:36.532Z,2.80
2023-03-14T23:18:06.737Z,3.00
2023-03-14T23:23:41.931Z,3.20
2023-03-14T23:29:20.772Z,3.60
2023-03-14T23:34:26.043Z,3.90
2023-03-14T23:39:30.529Z,4.20
2023-03-14T23:44:37.648Z,4.10
2023-03-14T23:49:41.074Z,4.30
2023-03-14T23:55:06.520Z,3.10
